sensor_id;sensor_type;location;lat;lon;timestamp;P1;durP1;ratioP1;P2;durP2;ratioP2
69989;SDS011;57331;52.054;5.294;2023-07-13T00:01:53;10.07;;;2.92;;
69989;SDS011;57331;52.054;5.294;2023-07-13T00:04:22;10.75;;;2.75;;
69989;SDS011;57331;52.054;5.294;2023-07-13T00:06:53;13.93;;;3.50;;
69989;SDS011;57331;52.054;5.294;2023-07-13T00:09:20;11.43;;;3.20;;
69989;SDS011;57331;52.054;5.294;2023-07-13T00:11:53;7.57;;;2.33;;
69989;SDS011;57331;52.054;5.294;2023-07-13T00:14:22;15.93;;;3.17;;
69989;SDS011;57331;52.054;5.294;2023-07-13T00:16:50;13.48;;;2.90;;
69989;SDS011;57331;52.054;5.294;2023-07-13T00:19:17;14.38;;;2.70;;
69989;SDS011;57331;52.054;5.294;2023-07-13T00:21:45;10.65;;;2.90;;
69989;SDS011;57331;52.054;5.294;2023-07-13T00:24:13;7.40;;;2.22;;
69989;SDS011;57331;52.054;5.294;2023-07-13T00:26:42;11.32;;;3.28;;
69989;SDS011;57331;52.054;5.294;2023-07-13T00:29:13;10.80;;;2.85;;
69989;SDS011;57331;52.054;5.294;2023-07-13T00:31:40;12.65;;;3.13;;
69989;SDS011;57331;52.054;5.294;2023-07-13T00:34:08;9.30;;;2.78;;
69989;SDS011;57331;52.054;5.294;2023-07-13T00:36:35;9.52;;;2.75;;
69989;SDS011;57331;52.054;5.294;2023-07-13T00:39:02;8.48;;;2.65;;
69989;SDS011;57331;52.054;5.294;2023-07-13T00:41:30;10.77;;;2.50;;
69989;SDS011;57331;52.054;5.294;2023-07-13T00:43:57;10.60;;;2.60;;
69989;SDS011;57331;52.054;5.294;2023-07-13T00:48:54;11.70;;;2.78;;
69989;SDS011;57331;52.054;5.294;2023-07-13T00:51:27;13.43;;;2.95;;
69989;SDS011;57331;52.054;5.294;2023-07-13T00:54:00;14.52;;;3.33;;
69989;SDS011;57331;52.054;5.294;2023-07-13T00:56:30;6.28;;;2.70;;
69989;SDS011;57331;52.054;5.294;2023-07-13T00:58:59;9.50;;;2.85;;
69989;SDS011;57331;52.054;5.294;2023-07-13T01:01:27;11.25;;;3.25;;
69989;SDS011;57331;52.054;5.294;2023-07-13T01:03:54;7.32;;;2.13;;
69989;SDS011;57331;52.054;5.294;2023-07-13T01:06:24;9.68;;;2.42;;
69989;SDS011;57331;52.054;5.294;2023-07-13T01:08:51;9.88;;;2.47;;
69989;SDS011;57331;52.054;5.294;2023-07-13T01:11:19;10.10;;;2.47;;
69989;SDS011;57331;52.054;5.294;2023-07-13T01:13:49;12.75;;;3.15;;
69989;SDS011;57331;52.054;5.294;2023-07-13T01:16:24;8.50;;;2.40;;
69989;SDS011;57331;52.054;5.294;2023-07-13T01:18:54;8.15;;;2.70;;
69989;SDS011;57331;52.054;5.294;2023-07-13T01:21:24;10.38;;;2.40;;
69989;SDS011;57331;52.054;5.294;2023-07-13T01:23:52;11.55;;;2.60;;
69989;SDS011;57331;52.054;5.294;2023-07-13T01:26:20;14.75;;;2.85;;
69989;SDS011;57331;52.054;5.294;2023-07-13T01:28:47;10.05;;;2.70;;
69989;SDS011;57331;52.054;5.294;2023-07-13T01:31:14;10.63;;;2.42;;
69989;SDS011;57331;52.054;5.294;2023-07-13T01:33:41;15.18;;;3.10;;
69989;SDS011;57331;52.054;5.294;2023-07-13T01:36:09;8.98;;;2.80;;
69989;SDS011;57331;52.054;5.294;2023-07-13T01:38:37;11.90;;;2.92;;
69989;SDS011;57331;52.054;5.294;2023-07-13T01:41:05;8.77;;;3.42;;
69989;SDS011;57331;52.054;5.294;2023-07-13T01:43:33;10.32;;;2.80;;
69989;SDS011;57331;52.054;5.294;2023-07-13T01:46:00;10.18;;;2.70;;
69989;SDS011;57331;52.054;5.294;2023-07-13T01:48:47;7.10;;;2.63;;
69989;SDS011;57331;52.054;5.294;2023-07-13T01:51:15;13.23;;;3.08;;
69989;SDS011;57331;52.054;5.294;2023-07-13T01:53:44;8.13;;;2.83;;
69989;SDS011;57331;52.054;5.294;2023-07-13T01:56:12;8.23;;;2.92;;
69989;SDS011;57331;52.054;5.294;2023-07-13T01:58:40;8.05;;;2.90;;
69989;SDS011;57331;52.054;5.294;2023-07-13T02:01:07;9.85;;;2.83;;
69989;SDS011;57331;52.054;5.294;2023-07-13T02:03:34;9.43;;;2.72;;
69989;SDS011;57331;52.054;5.294;2023-07-13T02:06:02;9.57;;;3.05;;
69989;SDS011;57331;52.054;5.294;2023-07-13T02:08:30;10.65;;;2.70;;
69989;SDS011;57331;52.054;5.294;2023-07-13T02:10:58;10.18;;;2.80;;
69989;SDS011;57331;52.054;5.294;2023-07-13T02:13:25;17.30;;;3.42;;
69989;SDS011;57331;52.054;5.294;2023-07-13T02:15:52;9.15;;;3.15;;
69989;SDS011;57331;52.054;5.294;2023-07-13T02:18:19;12.95;;;3.50;;
69989;SDS011;57331;52.054;5.294;2023-07-13T02:20:46;12.13;;;3.50;;
69989;SDS011;57331;52.054;5.294;2023-07-13T02:23:13;11.60;;;2.90;;
69989;SDS011;57331;52.054;5.294;2023-07-13T02:25:40;17.67;;;3.50;;
69989;SDS011;57331;52.054;5.294;2023-07-13T02:28:07;15.27;;;4.47;;
69989;SDS011;57331;52.054;5.294;2023-07-13T02:30:35;8.30;;;3.50;;
69989;SDS011;57331;52.054;5.294;2023-07-13T02:33:02;13.82;;;3.70;;
69989;SDS011;57331;52.054;5.294;2023-07-13T02:35:29;18.05;;;3.35;;
69989;SDS011;57331;52.054;5.294;2023-07-13T02:37:57;13.65;;;3.58;;
69989;SDS011;57331;52.054;5.294;2023-07-13T02:40:24;13.23;;;3.53;;
69989;SDS011;57331;52.054;5.294;2023-07-13T02:42:52;20.02;;;3.95;;
69989;SDS011;57331;52.054;5.294;2023-07-13T02:45:19;15.15;;;3.65;;
69989;SDS011;57331;52.054;5.294;2023-07-13T02:47:47;12.40;;;3.78;;
69989;SDS011;57331;52.054;5.294;2023-07-13T02:50:14;11.82;;;3.30;;
69989;SDS011;57331;52.054;5.294;2023-07-13T02:52:42;11.23;;;3.80;;
69989;SDS011;57331;52.054;5.294;2023-07-13T02:55:09;14.48;;;3.78;;
69989;SDS011;57331;52.054;5.294;2023-07-13T02:57:36;17.70;;;3.75;;
69989;SDS011;57331;52.054;5.294;2023-07-13T03:00:04;8.48;;;3.63;;
69989;SDS011;57331;52.054;5.294;2023-07-13T03:02:33;16.45;;;4.10;;
69989;SDS011;57331;52.054;5.294;2023-07-13T03:05:01;12.35;;;3.42;;
69989;SDS011;57331;52.054;5.294;2023-07-13T03:07:29;12.93;;;3.58;;
69989;SDS011;57331;52.054;5.294;2023-07-13T03:09:57;9.27;;;3.38;;
69989;SDS011;57331;52.054;5.294;2023-07-13T03:12:34;17.65;;;3.97;;
69989;SDS011;57331;52.054;5.294;2023-07-13T03:15:05;16.48;;;4.25;;
69989;SDS011;57331;52.054;5.294;2023-07-13T03:17:35;11.52;;;3.33;;
69989;SDS011;57331;52.054;5.294;2023-07-13T03:20:02;16.10;;;3.80;;
69989;SDS011;57331;52.054;5.294;2023-07-13T03:22:30;11.50;;;3.28;;
69989;SDS011;57331;52.054;5.294;2023-07-13T03:24:58;17.33;;;3.40;;
69989;SDS011;57331;52.054;5.294;2023-07-13T03:27:25;13.65;;;3.65;;
69989;SDS011;57331;52.054;5.294;2023-07-13T03:29:53;12.82;;;4.13;;
69989;SDS011;57331;52.054;5.294;2023-07-13T03:32:21;14.47;;;4.40;;
69989;SDS011;57331;52.054;5.294;2023-07-13T03:34:48;17.70;;;3.92;;
69989;SDS011;57331;52.054;5.294;2023-07-13T03:37:16;13.13;;;3.72;;
69989;SDS011;57331;52.054;5.294;2023-07-13T03:39:43;17.08;;;3.90;;
69989;SDS011;57331;52.054;5.294;2023-07-13T03:42:11;13.30;;;3.30;;
69989;SDS011;57331;52.054;5.294;2023-07-13T03:44:39;17.98;;;3.92;;
69989;SDS011;57331;52.054;5.294;2023-07-13T03:47:06;12.23;;;3.50;;
69989;SDS011;57331;52.054;5.294;2023-07-13T03:49:35;14.85;;;4.03;;
69989;SDS011;57331;52.054;5.294;2023-07-13T03:52:02;16.48;;;4.70;;
69989;SDS011;57331;52.054;5.294;2023-07-13T03:54:29;9.87;;;3.10;;
69989;SDS011;57331;52.054;5.294;2023-07-13T03:56:57;15.15;;;4.13;;
69989;SDS011;57331;52.054;5.294;2023-07-13T03:59:25;19.63;;;4.05;;
69989;SDS011;57331;52.054;5.294;2023-07-13T04:01:52;15.73;;;3.95;;
69989;SDS011;57331;52.054;5.294;2023-07-13T04:04:21;12.18;;;4.05;;
69989;SDS011;57331;52.054;5.294;2023-07-13T04:06:48;16.83;;;4.70;;
69989;SDS011;57331;52.054;5.294;2023-07-13T04:09:16;10.60;;;4.00;;
69989;SDS011;57331;52.054;5.294;2023-07-13T04:11:43;15.63;;;4.50;;
69989;SDS011;57331;52.054;5.294;2023-07-13T04:14:10;17.05;;;4.22;;
69989;SDS011;57331;52.054;5.294;2023-07-13T04:16:36;13.35;;;4.30;;
69989;SDS011;57331;52.054;5.294;2023-07-13T04:19:04;13.07;;;4.60;;
69989;SDS011;57331;52.054;5.294;2023-07-13T04:21:31;21.40;;;3.97;;
69989;SDS011;57331;52.054;5.294;2023-07-13T04:23:58;18.63;;;5.17;;
69989;SDS011;57331;52.054;5.294;2023-07-13T04:26:26;20.50;;;5.43;;
69989;SDS011;57331;52.054;5.294;2023-07-13T04:28:53;15.27;;;4.88;;
69989;SDS011;57331;52.054;5.294;2023-07-13T04:31:20;18.45;;;5.18;;
69989;SDS011;57331;52.054;5.294;2023-07-13T04:33:48;17.05;;;4.50;;
69989;SDS011;57331;52.054;5.294;2023-07-13T04:36:16;16.25;;;4.97;;
69989;SDS011;57331;52.054;5.294;2023-07-13T04:38:44;16.03;;;5.47;;
69989;SDS011;57331;52.054;5.294;2023-07-13T04:41:12;22.02;;;4.78;;
69989;SDS011;57331;52.054;5.294;2023-07-13T04:43:41;16.67;;;4.32;;
69989;SDS011;57331;52.054;5.294;2023-07-13T04:46:08;12.40;;;5.13;;
69989;SDS011;57331;52.054;5.294;2023-07-13T04:48:39;17.58;;;5.10;;
69989;SDS011;57331;52.054;5.294;2023-07-13T04:51:06;18.45;;;5.15;;
69989;SDS011;57331;52.054;5.294;2023-07-13T04:53:34;19.70;;;5.03;;
69989;SDS011;57331;52.054;5.294;2023-07-13T04:56:01;16.63;;;4.55;;
69989;SDS011;57331;52.054;5.294;2023-07-13T04:58:30;15.18;;;4.53;;
69989;SDS011;57331;52.054;5.294;2023-07-13T05:01:01;15.65;;;4.60;;
69989;SDS011;57331;52.054;5.294;2023-07-13T05:03:32;18.00;;;4.85;;
69989;SDS011;57331;52.054;5.294;2023-07-13T05:06:03;22.00;;;5.27;;
69989;SDS011;57331;52.054;5.294;2023-07-13T05:08:32;18.42;;;5.18;;
69989;SDS011;57331;52.054;5.294;2023-07-13T05:11:00;26.77;;;6.45;;
69989;SDS011;57331;52.054;5.294;2023-07-13T05:13:28;16.23;;;4.90;;
69989;SDS011;57331;52.054;5.294;2023-07-13T05:16:00;21.70;;;6.10;;
69989;SDS011;57331;52.054;5.294;2023-07-13T05:18:28;21.00;;;5.67;;
69989;SDS011;57331;52.054;5.294;2023-07-13T05:20:57;19.80;;;5.50;;
69989;SDS011;57331;52.054;5.294;2023-07-13T05:23:25;17.30;;;5.85;;
69989;SDS011;57331;52.054;5.294;2023-07-13T05:25:52;23.70;;;6.13;;
69989;SDS011;57331;52.054;5.294;2023-07-13T05:28:19;17.63;;;6.63;;
69989;SDS011;57331;52.054;5.294;2023-07-13T05:30:47;16.80;;;4.93;;
69989;SDS011;57331;52.054;5.294;2023-07-13T05:33:14;21.83;;;5.90;;
69989;SDS011;57331;52.054;5.294;2023-07-13T05:35:41;21.70;;;6.32;;
69989;SDS011;57331;52.054;5.294;2023-07-13T05:38:09;19.75;;;5.72;;
69989;SDS011;57331;52.054;5.294;2023-07-13T05:40:36;14.60;;;5.75;;
69989;SDS011;57331;52.054;5.294;2023-07-13T05:43:03;23.63;;;5.90;;
69989;SDS011;57331;52.054;5.294;2023-07-13T05:45:30;20.42;;;6.03;;
69989;SDS011;57331;52.054;5.294;2023-07-13T05:47:58;22.23;;;6.65;;
69989;SDS011;57331;52.054;5.294;2023-07-13T05:50:25;22.88;;;6.53;;
69989;SDS011;57331;52.054;5.294;2023-07-13T05:52:53;24.13;;;6.18;;
69989;SDS011;57331;52.054;5.294;2023-07-13T05:55:20;19.73;;;7.65;;
69989;SDS011;57331;52.054;5.294;2023-07-13T05:57:47;24.15;;;7.00;;
69989;SDS011;57331;52.054;5.294;2023-07-13T06:00:15;24.80;;;7.68;;
69989;SDS011;57331;52.054;5.294;2023-07-13T06:02:42;27.00;;;8.32;;
69989;SDS011;57331;52.054;5.294;2023-07-13T06:05:10;30.55;;;8.05;;
69989;SDS011;57331;52.054;5.294;2023-07-13T06:07:37;30.10;;;7.97;;
69989;SDS011;57331;52.054;5.294;2023-07-13T06:10:04;24.42;;;8.07;;
69989;SDS011;57331;52.054;5.294;2023-07-13T06:12:32;28.20;;;8.10;;
69989;SDS011;57331;52.054;5.294;2023-07-13T06:14:58;27.60;;;8.27;;
69989;SDS011;57331;52.054;5.294;2023-07-13T06:17:25;30.15;;;9.75;;
69989;SDS011;57331;52.054;5.294;2023-07-13T06:19:52;26.10;;;8.75;;
69989;SDS011;57331;52.054;5.294;2023-07-13T06:22:20;30.23;;;8.30;;
69989;SDS011;57331;52.054;5.294;2023-07-13T06:24:47;24.40;;;7.80;;
69989;SDS011;57331;52.054;5.294;2023-07-13T06:27:15;29.63;;;8.88;;
69989;SDS011;57331;52.054;5.294;2023-07-13T06:29:42;28.98;;;8.48;;
69989;SDS011;57331;52.054;5.294;2023-07-13T06:32:11;27.95;;;9.95;;
69989;SDS011;57331;52.054;5.294;2023-07-13T06:34:38;28.45;;;10.68;;
69989;SDS011;57331;52.054;5.294;2023-07-13T06:37:08;27.25;;;9.85;;
69989;SDS011;57331;52.054;5.294;2023-07-13T06:39:36;30.77;;;10.15;;
69989;SDS011;57331;52.054;5.294;2023-07-13T06:42:03;30.77;;;11.15;;
69989;SDS011;57331;52.054;5.294;2023-07-13T06:44:30;25.50;;;9.90;;
69989;SDS011;57331;52.054;5.294;2023-07-13T06:46:58;25.95;;;9.98;;
69989;SDS011;57331;52.054;5.294;2023-07-13T06:49:25;28.42;;;10.05;;
69989;SDS011;57331;52.054;5.294;2023-07-13T06:51:52;22.48;;;8.30;;
69989;SDS011;57331;52.054;5.294;2023-07-13T06:54:19;22.25;;;9.90;;
69989;SDS011;57331;52.054;5.294;2023-07-13T06:56:47;26.08;;;10.52;;
69989;SDS011;57331;52.054;5.294;2023-07-13T06:59:14;26.98;;;10.38;;
69989;SDS011;57331;52.054;5.294;2023-07-13T07:01:41;21.45;;;8.68;;
69989;SDS011;57331;52.054;5.294;2023-07-13T07:04:08;23.13;;;9.80;;
69989;SDS011;57331;52.054;5.294;2023-07-13T07:06:35;21.75;;;9.05;;
69989;SDS011;57331;52.054;5.294;2023-07-13T07:09:02;21.58;;;8.82;;
69989;SDS011;57331;52.054;5.294;2023-07-13T07:11:30;22.10;;;9.02;;
69989;SDS011;57331;52.054;5.294;2023-07-13T07:13:57;27.02;;;9.65;;
69989;SDS011;57331;52.054;5.294;2023-07-13T07:16:25;24.73;;;10.30;;
69989;SDS011;57331;52.054;5.294;2023-07-13T07:18:53;26.10;;;9.73;;
69989;SDS011;57331;52.054;5.294;2023-07-13T07:21:20;22.70;;;9.43;;
69989;SDS011;57331;52.054;5.294;2023-07-13T07:23:49;29.17;;;9.35;;
69989;SDS011;57331;52.054;5.294;2023-07-13T07:26:17;25.88;;;9.70;;
69989;SDS011;57331;52.054;5.294;2023-07-13T07:28:49;24.45;;;7.75;;
69989;SDS011;57331;52.054;5.294;2023-07-13T07:31:17;29.27;;;10.20;;
69989;SDS011;57331;52.054;5.294;2023-07-13T07:33:47;26.83;;;9.63;;
69989;SDS011;57331;52.054;5.294;2023-07-13T07:36:16;33.33;;;10.18;;
69989;SDS011;57331;52.054;5.294;2023-07-13T07:38:46;28.00;;;9.38;;
69989;SDS011;57331;52.054;5.294;2023-07-13T07:41:14;21.27;;;10.25;;
69989;SDS011;57331;52.054;5.294;2023-07-13T07:43:43;24.08;;;9.68;;
69989;SDS011;57331;52.054;5.294;2023-07-13T07:46:11;22.35;;;9.05;;
69989;SDS011;57331;52.054;5.294;2023-07-13T07:48:38;26.40;;;10.52;;
69989;SDS011;57331;52.054;5.294;2023-07-13T07:51:06;27.13;;;10.95;;
69989;SDS011;57331;52.054;5.294;2023-07-13T07:53:33;27.75;;;10.80;;
69989;SDS011;57331;52.054;5.294;2023-07-13T07:56:00;21.20;;;9.40;;
69989;SDS011;57331;52.054;5.294;2023-07-13T07:58:47;27.67;;;10.02;;
69989;SDS011;57331;52.054;5.294;2023-07-13T08:01:18;21.13;;;9.00;;
69989;SDS011;57331;52.054;5.294;2023-07-13T08:03:48;25.70;;;8.45;;
69989;SDS011;57331;52.054;5.294;2023-07-13T08:06:18;16.52;;;8.45;;
69989;SDS011;57331;52.054;5.294;2023-07-13T08:08:49;23.85;;;8.45;;
69989;SDS011;57331;52.054;5.294;2023-07-13T08:11:16;24.13;;;9.15;;
69989;SDS011;57331;52.054;5.294;2023-07-13T08:13:46;24.40;;;9.15;;
69989;SDS011;57331;52.054;5.294;2023-07-13T08:16:16;18.98;;;7.28;;
69989;SDS011;57331;52.054;5.294;2023-07-13T08:18:44;16.30;;;6.65;;
69989;SDS011;57331;52.054;5.294;2023-07-13T08:21:10;20.25;;;7.32;;
69989;SDS011;57331;52.054;5.294;2023-07-13T08:23:38;16.50;;;6.38;;
69989;SDS011;57331;52.054;5.294;2023-07-13T08:26:05;19.77;;;5.65;;
69989;SDS011;57331;52.054;5.294;2023-07-13T08:28:32;16.50;;;5.47;;
69989;SDS011;57331;52.054;5.294;2023-07-13T08:31:04;12.43;;;4.72;;
69989;SDS011;57331;52.054;5.294;2023-07-13T08:33:31;11.63;;;4.32;;
69989;SDS011;57331;52.054;5.294;2023-07-13T08:35:59;11.50;;;4.35;;
69989;SDS011;57331;52.054;5.294;2023-07-13T08:38:26;9.18;;;3.72;;
69989;SDS011;57331;52.054;5.294;2023-07-13T08:40:54;9.77;;;3.20;;
69989;SDS011;57331;52.054;5.294;2023-07-13T08:43:26;10.90;;;4.15;;
69989;SDS011;57331;52.054;5.294;2023-07-13T08:46:13;14.07;;;4.85;;
69989;SDS011;57331;52.054;5.294;2023-07-13T08:49:08;13.70;;;4.28;;
69989;SDS011;57331;52.054;5.294;2023-07-13T08:51:48;15.02;;;4.65;;
69989;SDS011;57331;52.054;5.294;2023-07-13T08:56:59;15.75;;;4.93;;
69989;SDS011;57331;52.054;5.294;2023-07-13T08:59:35;14.35;;;4.65;;
69989;SDS011;57331;52.054;5.294;2023-07-13T09:04:59;11.50;;;4.22;;
69989;SDS011;57331;52.054;5.294;2023-07-13T09:07:45;8.45;;;3.30;;
69989;SDS011;57331;52.054;5.294;2023-07-13T09:10:29;10.48;;;3.40;;
69989;SDS011;57331;52.054;5.294;2023-07-13T09:13:07;9.93;;;3.33;;
69989;SDS011;57331;52.054;5.294;2023-07-13T09:15:50;10.35;;;3.50;;
69989;SDS011;57331;52.054;5.294;2023-07-13T09:20:54;11.82;;;3.70;;
69989;SDS011;57331;52.054;5.294;2023-07-13T09:23:26;10.50;;;3.80;;
69989;SDS011;57331;52.054;5.294;2023-07-13T09:26:14;11.82;;;3.72;;
69989;SDS011;57331;52.054;5.294;2023-07-13T09:28:57;8.50;;;3.22;;
69989;SDS011;57331;52.054;5.294;2023-07-13T09:31:41;12.90;;;3.75;;
69989;SDS011;57331;52.054;5.294;2023-07-13T09:34:12;11.45;;;3.75;;
69989;SDS011;57331;52.054;5.294;2023-07-13T09:36:39;9.93;;;3.03;;
69989;SDS011;57331;52.054;5.294;2023-07-13T09:41:40;7.70;;;3.25;;
69989;SDS011;57331;52.054;5.294;2023-07-13T09:44:28;11.43;;;3.70;;
69989;SDS011;57331;52.054;5.294;2023-07-13T09:46:57;8.50;;;2.90;;
69989;SDS011;57331;52.054;5.294;2023-07-13T09:49:26;13.07;;;4.03;;
69989;SDS011;57331;52.054;5.294;2023-07-13T09:52:01;9.75;;;3.50;;
69989;SDS011;57331;52.054;5.294;2023-07-13T09:54:34;10.13;;;2.70;;
69989;SDS011;57331;52.054;5.294;2023-07-13T09:57:08;12.35;;;2.72;;
69989;SDS011;57331;52.054;5.294;2023-07-13T09:59:47;8.75;;;2.70;;
69989;SDS011;57331;52.054;5.294;2023-07-13T10:07:40;7.78;;;2.70;;
69989;SDS011;57331;52.054;5.294;2023-07-13T10:10:22;8.45;;;3.40;;
69989;SDS011;57331;52.054;5.294;2023-07-13T10:12:49;11.45;;;3.65;;
69989;SDS011;57331;52.054;5.294;2023-07-13T10:15:18;9.20;;;3.22;;
69989;SDS011;57331;52.054;5.294;2023-07-13T10:17:54;7.15;;;3.10;;
69989;SDS011;57331;52.054;5.294;2023-07-13T10:20:22;8.10;;;3.08;;
69989;SDS011;57331;52.054;5.294;2023-07-13T10:22:51;9.10;;;3.33;;
69989;SDS011;57331;52.054;5.294;2023-07-13T10:25:26;14.32;;;4.38;;
69989;SDS011;57331;52.054;5.294;2023-07-13T10:28:02;10.30;;;3.87;;
69989;SDS011;57331;52.054;5.294;2023-07-13T10:30:34;8.80;;;2.75;;
69989;SDS011;57331;52.054;5.294;2023-07-13T10:33:08;7.03;;;2.65;;
69989;SDS011;57331;52.054;5.294;2023-07-13T10:35:38;7.22;;;2.83;;
69989;SDS011;57331;52.054;5.294;2023-07-13T10:38:10;5.63;;;2.83;;
69989;SDS011;57331;52.054;5.294;2023-07-13T10:40:45;6.20;;;2.60;;
69989;SDS011;57331;52.054;5.294;2023-07-13T10:43:25;6.90;;;2.80;;
69989;SDS011;57331;52.054;5.294;2023-07-13T10:46:06;5.85;;;2.42;;
69989;SDS011;57331;52.054;5.294;2023-07-13T10:48:37;8.32;;;2.90;;
69989;SDS011;57331;52.054;5.294;2023-07-13T10:51:06;6.28;;;2.72;;
69989;SDS011;57331;52.054;5.294;2023-07-13T10:53:34;7.23;;;2.67;;
69989;SDS011;57331;52.054;5.294;2023-07-13T10:56:10;7.45;;;2.60;;
69989;SDS011;57331;52.054;5.294;2023-07-13T10:58:46;6.18;;;2.72;;
69989;SDS011;57331;52.054;5.294;2023-07-13T11:01:27;9.05;;;3.03;;
69989;SDS011;57331;52.054;5.294;2023-07-13T11:04:08;8.05;;;3.20;;
69989;SDS011;57331;52.054;5.294;2023-07-13T11:06:40;6.60;;;3.00;;
69989;SDS011;57331;52.054;5.294;2023-07-13T11:12:50;8.63;;;3.05;;
69989;SDS011;57331;52.054;5.294;2023-07-13T11:25:44;5.97;;;2.42;;
69989;SDS011;57331;52.054;5.294;2023-07-13T11:30:39;8.35;;;3.30;;
69989;SDS011;57331;52.054;5.294;2023-07-13T11:38:36;7.05;;;2.75;;
69989;SDS011;57331;52.054;5.294;2023-07-13T11:41:22;7.75;;;2.90;;
69989;SDS011;57331;52.054;5.294;2023-07-13T11:44:06;7.93;;;3.22;;
69989;SDS011;57331;52.054;5.294;2023-07-13T11:46:33;7.23;;;2.80;;
69989;SDS011;57331;52.054;5.294;2023-07-13T11:49:00;8.48;;;3.65;;
69989;SDS011;57331;52.054;5.294;2023-07-13T11:51:29;11.27;;;3.42;;
69989;SDS011;57331;52.054;5.294;2023-07-13T11:54:00;7.28;;;3.28;;
69989;SDS011;57331;52.054;5.294;2023-07-13T11:56:30;9.32;;;3.60;;
69989;SDS011;57331;52.054;5.294;2023-07-13T11:59:05;10.47;;;3.53;;
69989;SDS011;57331;52.054;5.294;2023-07-13T12:01:34;8.68;;;3.47;;
69989;SDS011;57331;52.054;5.294;2023-07-13T12:04:08;8.57;;;3.30;;
69989;SDS011;57331;52.054;5.294;2023-07-13T12:07:28;10.48;;;3.55;;
69989;SDS011;57331;52.054;5.294;2023-07-13T12:09:47;7.60;;;3.00;;
69989;SDS011;57331;52.054;5.294;2023-07-13T12:12:18;7.70;;;2.93;;
69989;SDS011;57331;52.054;5.294;2023-07-13T12:14:51;8.75;;;2.83;;
69989;SDS011;57331;52.054;5.294;2023-07-13T12:17:19;7.32;;;3.10;;
69989;SDS011;57331;52.054;5.294;2023-07-13T12:19:51;11.00;;;3.03;;
69989;SDS011;57331;52.054;5.294;2023-07-13T12:22:19;7.03;;;2.90;;
69989;SDS011;57331;52.054;5.294;2023-07-13T12:24:47;8.03;;;2.83;;
69989;SDS011;57331;52.054;5.294;2023-07-13T12:27:22;8.65;;;3.10;;
69989;SDS011;57331;52.054;5.294;2023-07-13T12:29:59;8.35;;;2.78;;
69989;SDS011;57331;52.054;5.294;2023-07-13T12:32:27;9.77;;;3.20;;
69989;SDS011;57331;52.054;5.294;2023-07-13T12:35:02;8.57;;;3.10;;
69989;SDS011;57331;52.054;5.294;2023-07-13T12:37:48;8.23;;;3.30;;
69989;SDS011;57331;52.054;5.294;2023-07-13T12:40:16;9.45;;;3.10;;
69989;SDS011;57331;52.054;5.294;2023-07-13T12:42:46;9.57;;;3.35;;
69989;SDS011;57331;52.054;5.294;2023-07-13T12:45:27;6.40;;;2.90;;
69989;SDS011;57331;52.054;5.294;2023-07-13T12:47:55;9.35;;;3.53;;
69989;SDS011;57331;52.054;5.294;2023-07-13T12:50:38;7.03;;;2.70;;
69989;SDS011;57331;52.054;5.294;2023-07-13T12:53:30;9.82;;;2.88;;
69989;SDS011;57331;52.054;5.294;2023-07-13T12:56:01;10.38;;;3.00;;
69989;SDS011;57331;52.054;5.294;2023-07-13T12:58:31;7.78;;;2.78;;
69989;SDS011;57331;52.054;5.294;2023-07-13T13:01:03;6.72;;;3.20;;
69989;SDS011;57331;52.054;5.294;2023-07-13T13:03:32;7.83;;;2.70;;
69989;SDS011;57331;52.054;5.294;2023-07-13T13:08:45;6.18;;;2.50;;
69989;SDS011;57331;52.054;5.294;2023-07-13T13:11:15;7.68;;;3.20;;
69989;SDS011;57331;52.054;5.294;2023-07-13T13:13:43;8.52;;;3.80;;
69989;SDS011;57331;52.054;5.294;2023-07-13T13:16:18;8.17;;;3.20;;
69989;SDS011;57331;52.054;5.294;2023-07-13T13:18:46;7.13;;;3.15;;
69989;SDS011;57331;52.054;5.294;2023-07-13T13:21:13;7.32;;;3.22;;
69989;SDS011;57331;52.054;5.294;2023-07-13T13:23:40;9.43;;;3.65;;
69989;SDS011;57331;52.054;5.294;2023-07-13T13:26:10;9.82;;;3.45;;
69989;SDS011;57331;52.054;5.294;2023-07-13T13:28:38;9.30;;;3.47;;
69989;SDS011;57331;52.054;5.294;2023-07-13T13:31:05;9.52;;;4.00;;
69989;SDS011;57331;52.054;5.294;2023-07-13T13:33:34;10.25;;;4.03;;
69989;SDS011;57331;52.054;5.294;2023-07-13T13:36:01;7.22;;;3.10;;
69989;SDS011;57331;52.054;5.294;2023-07-13T13:38:28;8.25;;;2.80;;
69989;SDS011;57331;52.054;5.294;2023-07-13T13:40:55;14.63;;;3.50;;
69989;SDS011;57331;52.054;5.294;2023-07-13T13:43:25;8.48;;;2.70;;
69989;SDS011;57331;52.054;5.294;2023-07-13T13:45:55;8.13;;;3.17;;
69989;SDS011;57331;52.054;5.294;2023-07-13T13:48:29;8.20;;;3.13;;
69989;SDS011;57331;52.054;5.294;2023-07-13T13:50:59;6.15;;;3.00;;
69989;SDS011;57331;52.054;5.294;2023-07-13T13:53:27;10.40;;;3.17;;
69989;SDS011;57331;52.054;5.294;2023-07-13T13:55:54;6.80;;;3.10;;
69989;SDS011;57331;52.054;5.294;2023-07-13T13:58:21;7.50;;;3.00;;
69989;SDS011;57331;52.054;5.294;2023-07-13T14:00:48;6.60;;;3.42;;
69989;SDS011;57331;52.054;5.294;2023-07-13T14:03:17;8.15;;;2.90;;
69989;SDS011;57331;52.054;5.294;2023-07-13T14:05:46;6.87;;;3.27;;
69989;SDS011;57331;52.054;5.294;2023-07-13T14:08:15;6.78;;;2.80;;
69989;SDS011;57331;52.054;5.294;2023-07-13T14:10:47;7.50;;;3.67;;
69989;SDS011;57331;52.054;5.294;2023-07-13T14:15:48;6.20;;;2.88;;
69989;SDS011;57331;52.054;5.294;2023-07-13T14:18:16;6.30;;;2.53;;
69989;SDS011;57331;52.054;5.294;2023-07-13T14:20:45;9.85;;;3.17;;
69989;SDS011;57331;52.054;5.294;2023-07-13T14:23:13;6.55;;;2.58;;
69989;SDS011;57331;52.054;5.294;2023-07-13T14:25:41;9.70;;;2.60;;
69989;SDS011;57331;52.054;5.294;2023-07-13T14:28:20;7.93;;;2.63;;
69989;SDS011;57331;52.054;5.294;2023-07-13T14:30:51;5.40;;;2.70;;
69989;SDS011;57331;52.054;5.294;2023-07-13T14:33:21;8.07;;;2.85;;
69989;SDS011;57331;52.054;5.294;2023-07-13T14:35:49;7.72;;;2.92;;
69989;SDS011;57331;52.054;5.294;2023-07-13T14:38:18;5.60;;;2.33;;
69989;SDS011;57331;52.054;5.294;2023-07-13T14:40:46;6.93;;;3.03;;
69989;SDS011;57331;52.054;5.294;2023-07-13T14:43:15;11.27;;;2.80;;
69989;SDS011;57331;52.054;5.294;2023-07-13T14:45:44;7.10;;;3.10;;
69989;SDS011;57331;52.054;5.294;2023-07-13T14:48:14;6.47;;;2.72;;
69989;SDS011;57331;52.054;5.294;2023-07-13T14:50:42;7.18;;;2.42;;
69989;SDS011;57331;52.054;5.294;2023-07-13T14:53:10;7.55;;;2.88;;
69989;SDS011;57331;52.054;5.294;2023-07-13T14:55:38;6.50;;;3.03;;
69989;SDS011;57331;52.054;5.294;2023-07-13T14:58:05;5.93;;;2.97;;
69989;SDS011;57331;52.054;5.294;2023-07-13T15:00:33;10.00;;;3.20;;
69989;SDS011;57331;52.054;5.294;2023-07-13T15:03:00;8.70;;;3.25;;
69989;SDS011;57331;52.054;5.294;2023-07-13T15:05:29;8.25;;;2.90;;
69989;SDS011;57331;52.054;5.294;2023-07-13T15:08:01;6.50;;;2.90;;
69989;SDS011;57331;52.054;5.294;2023-07-13T15:10:30;5.90;;;2.17;;
69989;SDS011;57331;52.054;5.294;2023-07-13T15:13:00;7.50;;;2.58;;
69989;SDS011;57331;52.054;5.294;2023-07-13T15:15:38;5.85;;;2.70;;
69989;SDS011;57331;52.054;5.294;2023-07-13T15:18:11;6.00;;;2.70;;
69989;SDS011;57331;52.054;5.294;2023-07-13T15:20:39;4.43;;;2.40;;
69989;SDS011;57331;52.054;5.294;2023-07-13T15:23:06;7.53;;;2.72;;
69989;SDS011;57331;52.054;5.294;2023-07-13T15:25:36;6.13;;;2.88;;
69989;SDS011;57331;52.054;5.294;2023-07-13T15:28:03;6.03;;;2.53;;
69989;SDS011;57331;52.054;5.294;2023-07-13T15:30:31;10.23;;;2.72;;
69989;SDS011;57331;52.054;5.294;2023-07-13T15:33:05;7.83;;;2.70;;
69989;SDS011;57331;52.054;5.294;2023-07-13T15:35:46;6.15;;;3.00;;
69989;SDS011;57331;52.054;5.294;2023-07-13T15:38:16;5.15;;;2.60;;
69989;SDS011;57331;52.054;5.294;2023-07-13T15:40:47;7.15;;;2.80;;